Time;durP1;ratioP1;P1;durP2;ratioP2;P2;SDS_P1;SDS_P2;PMS_P1;PMS_P2;Temp;Humidity;BMP_temperature;BMP_pressure;BME280_temperature;BME280_humidity;BME280_pressure;Samples;Min_cycle;Max_cycle;Signal;HPM_P1;HPM_P2
2022/06/21 00:02:26;;;;;;;13.77;8.35;;;17.70;99.90;;;;;;5092512;28;20105;-65
2022/06/21 00:04:54;;;;;;;15.15;8.57;;;17.70;99.90;;;;;;5089141;28;20131;-65
2022/06/21 00:07:24;;;;;;;13.57;8.90;;;17.70;99.90;;;;;;5086832;28;20044;-66
2022/06/21 00:09:51;;;;;;;12.13;8.75;;;17.70;99.90;;;;;;5092112;28;20048;-66
2022/06/21 00:12:18;;;;;;;13.98;8.57;;;17.60;99.90;;;;;;5085550;28;20035;-65
2022/06/21 00:14:46;;;;;;;12.27;8.50;;;17.60;99.90;;;;;;5083652;28;20040;-66
2022/06/21 00:17:16;;;;;;;11.10;8.18;;;17.60;99.90;;;;;;5092231;28;20043;-65
2022/06/21 00:19:43;;;;;;;16.45;9.10;;;17.60;99.90;;;;;;5092073;28;20113;-65
2022/06/21 00:22:13;;;;;;;14.88;8.10;;;17.60;99.90;;;;;;5082033;28;20534;-65
2022/06/21 00:24:40;;;;;;;15.27;8.02;;;17.50;99.90;;;;;;5089091;28;20048;-65
2022/06/21 00:27:19;;;;;;;12.13;8.95;;;17.70;99.90;;;;;;5091898;28;20097;-65
2022/06/21 00:29:47;;;;;;;16.98;8.80;;;17.50;99.90;;;;;;5071415;28;20539;-65
2022/06/21 00:32:17;;;;;;;13.07;8.38;;;17.50;99.90;;;;;;5083070;28;20525;-65
2022/06/21 00:34:46;;;;;;;12.15;8.35;;;17.50;99.90;;;;;;5092247;28;20036;-65
2022/06/21 00:37:16;;;;;;;12.68;8.50;;;17.50;99.90;;;;;;5092051;28;20117;-65
2022/06/21 00:39:43;;;;;;;13.60;8.30;;;17.50;99.90;;;;;;5062846;28;20090;-65
2022/06/21 00:42:26;;;;;;;12.32;9.02;;;17.50;99.90;;;;;;5090742;28;20052;-65
2022/06/21 00:45:05;;;;;;;17.27;10.50;;;17.40;99.90;;;;;;5091158;28;20075;-65
2022/06/21 00:47:52;;;;;;;20.02;9.43;;;17.40;99.90;;;;;;5079865;28;20028;-65
2022/06/21 00:50:34;;;;;;;13.57;10.15;;;17.40;99.90;;;;;;5071019;28;20047;-65
2022/06/21 00:53:11;;;;;;;14.55;10.40;;;17.40;99.90;;;;;;5071032;28;20501;-65
2022/06/21 00:55:44;;;;;;;15.85;10.57;;;17.40;99.90;;;;;;5080149;28;20545;-65
2022/06/21 00:58:13;;;;;;;18.55;10.35;;;17.30;99.90;;;;;;5084588;28;20052;-65
2022/06/21 01:01:23;;;;;;;16.15;11.13;;;17.30;99.90;;;;;;5091414;28;20044;-65
2022/06/21 01:04:00;;;;;;;18.67;11.70;;;17.30;99.90;;;;;;5008251;28;20042;-65
2022/06/21 01:06:31;;;;;;;15.35;11.52;;;17.30;99.90;;;;;;5074969;28;20041;-65
2022/06/21 01:09:06;;;;;;;16.67;11.88;;;17.30;99.90;;;;;;5071928;28;20040;-65
2022/06/21 01:11:48;;;;;;;20.00;11.75;;;17.40;99.90;;;;;;5070893;28;20048;-64
2022/06/21 01:14:20;;;;;;;18.63;10.93;;;17.40;99.90;;;;;;5079584;28;20114;-65
2022/06/21 01:16:47;;;;;;;21.67;12.18;;;17.40;99.90;;;;;;5089434;28;20048;-64
2022/06/21 01:19:35;;;;;;;18.88;11.93;;;17.30;99.90;;;;;;5091267;28;20144;-64
2022/06/21 01:22:16;;;;;;;22.67;11.98;;;17.30;99.90;;;;;;5089706;28;20089;-64
2022/06/21 01:25:20;;;;;;;22.02;13.77;;;17.30;99.90;;;;;;5083145;28;20448;-64
2022/06/21 01:27:48;;;;;;;18.27;12.75;;;17.30;99.90;;;;;;5060236;28;20086;-64
2022/06/21 01:30:14;;;;;;;20.98;13.20;;;17.20;99.90;;;;;;5086546;28;20059;-64
2022/06/21 01:32:41;;;;;;;17.20;12.52;;;17.20;99.90;;;;;;5080057;28;20032;-65
2022/06/21 01:35:12;;;;;;;19.05;13.15;;;17.30;99.90;;;;;;5091263;28;20052;-64
2022/06/21 01:37:40;;;;;;;19.67;13.07;;;17.30;99.90;;;;;;5091332;28;20113;-64
2022/06/21 01:40:17;;;;;;;16.45;11.82;;;17.30;99.90;;;;;;5087287;28;20048;-65
2022/06/21 01:42:54;;;;;;;16.25;10.98;;;17.30;99.90;;;;;;5103851;22;20059;-63
2022/06/21 01:45:27;;;;;;;18.15;10.93;;;17.30;99.90;;;;;;5098593;28;20040;-63
2022/06/21 01:48:22;;;;;;;16.45;10.00;;;17.30;99.90;;;;;;5093206;28;20576;-63
2022/06/21 01:50:52;;;;;;;15.90;9.85;;;17.40;99.90;;;;;;5098724;28;20085;-63
2022/06/21 01:53:23;;;;;;;14.30;9.30;;;17.40;99.90;;;;;;5113648;28;20040;-63
2022/06/21 01:56:03;;;;;;;13.52;9.10;;;17.40;99.90;;;;;;5082152;28;20044;-63
2022/06/21 01:58:35;;;;;;;16.45;9.20;;;17.40;99.90;;;;;;5110515;28;20092;-64
2022/06/21 02:01:16;;;;;;;13.95;8.60;;;17.50;99.90;;;;;;5114815;28;20043;-63
2022/06/21 02:03:47;;;;;;;14.93;8.23;;;17.50;99.90;;;;;;5115101;28;20100;-63
2022/06/21 02:06:15;;;;;;;15.48;8.45;;;17.50;99.90;;;;;;5106621;28;20063;-63
2022/06/21 02:08:50;;;;;;;11.55;7.18;;;17.50;99.90;;;;;;5106427;28;20088;-63
2022/06/21 02:11:24;;;;;;;11.02;6.32;;;17.40;99.90;;;;;;5114526;28;20040;-64
2022/06/21 02:16:43;;;;;;;16.00;6.75;;;17.50;99.90;;;;;;5103103;28;20044;-63
2022/06/21 02:19:30;;;;;;;8.68;6.03;;;17.50;99.90;;;;;;5115079;28;20047;-64
2022/06/21 02:21:57;;;;;;;8.35;6.25;;;17.50;99.90;;;;;;5097020;28;20039;-63
2022/06/21 02:24:28;;;;;;;11.95;6.10;;;17.50;99.90;;;;;;5091558;28;20082;-63
2022/06/21 02:26:57;;;;;;;10.73;5.68;;;17.40;99.90;;;;;;5105148;28;20492;-63
2022/06/21 02:29:24;;;;;;;7.90;5.63;;;17.40;99.90;;;;;;5114787;28;20097;-63
2022/06/21 02:31:50;;;;;;;6.70;5.28;;;17.40;99.90;;;;;;5114205;28;20043;-63
2022/06/21 02:34:27;;;;;;;8.38;4.72;;;17.40;99.90;;;;;;5105114;28;20040;-63
2022/06/21 02:36:57;;;;;;;10.13;5.47;;;17.40;99.90;;;;;;5113440;28;20040;-63
2022/06/21 02:39:27;;;;;;;7.43;5.38;;;17.40;99.90;;;;;;5114588;28;20090;-63
2022/06/21 02:42:06;;;;;;;8.18;4.82;;;17.40;99.90;;;;;;5106690;28;20055;-63
2022/06/21 02:44:47;;;;;;;5.68;4.55;;;17.30;99.90;;;;;;5110437;28;20450;-63
2022/06/21 02:47:20;;;;;;;5.85;4.82;;;17.40;99.90;;;;;;5114360;28;20043;-63
2022/06/21 02:49:53;;;;;;;10.27;5.30;;;17.40;99.90;;;;;;5105483;28;20369;-63
2022/06/21 02:52:38;;;;;;;11.93;5.38;;;17.30;99.90;;;;;;5108193;28;20039;-63
2022/06/21 02:55:08;;;;;;;8.30;5.55;;;17.30;99.90;;;;;;5114126;28;20105;-63
2022/06/21 02:57:48;;;;;;;11.23;5.57;;;17.30;99.90;;;;;;5105048;28;20044;-63
2022/06/21 03:00:18;;;;;;;9.50;5.93;;;17.30;99.90;;;;;;5105196;28;20044;-63
2022/06/21 03:02:45;;;;;;;13.15;5.28;;;17.30;99.90;;;;;;5113986;28;20408;-63
2022/06/21 03:05:16;;;;;;;8.50;5.93;;;17.40;99.90;;;;;;5112688;28;20047;-63
2022/06/21 03:07:55;;;;;;;8.60;6.00;;;17.30;99.90;;;;;;5102863;28;20039;-63
2022/06/21 03:10:26;;;;;;;7.20;5.00;;;17.30;99.90;;;;;;5108121;28;20450;-63
2022/06/21 03:13:10;;;;;;;7.65;5.22;;;17.30;99.90;;;;;;5113676;28;20097;-63
2022/06/21 03:15:38;;;;;;;7.38;5.50;;;17.20;99.90;;;;;;5110571;28;20765;-63
2022/06/21 03:18:11;;;;;;;10.60;5.80;;;17.30;99.90;;;;;;5104956;28;20092;-63
2022/06/21 03:20:40;;;;;;;9.73;6.10;;;17.20;99.90;;;;;;5113558;28;20372;-63
2022/06/21 03:23:07;;;;;;;9.70;5.78;;;17.10;99.90;;;;;;5113404;28;20137;-63
2022/06/21 03:25:57;;;;;;;7.18;5.50;;;17.20;99.90;;;;;;5105818;28;20051;-63
2022/06/21 03:28:46;;;;;;;10.82;5.88;;;17.20;99.90;;;;;;5103274;28;20104;-63
2022/06/21 03:31:30;;;;;;;12.05;5.80;;;17.20;99.90;;;;;;5113065;28;20051;-63
2022/06/21 03:34:06;;;;;;;8.95;5.25;;;17.20;99.90;;;;;;5108241;28;20038;-63
2022/06/21 03:36:34;;;;;;;7.78;4.60;;;17.20;99.90;;;;;;5109717;28;20085;-64
2022/06/21 03:39:10;;;;;;;8.35;5.07;;;17.30;99.90;;;;;;5113232;28;20056;-63
2022/06/21 03:41:43;;;;;;;6.80;4.70;;;17.30;99.90;;;;;;5110980;28;20385;-64
2022/06/21 03:44:20;;;;;;;7.70;4.93;;;17.30;99.90;;;;;;5104390;28;20051;-64
2022/06/21 03:47:05;;;;;;;9.07;5.35;;;17.30;99.90;;;;;;5113281;28;20069;-63
2022/06/21 03:49:42;;;;;;;9.00;5.22;;;17.30;99.90;;;;;;5112919;28;20047;-64
2022/06/21 03:52:15;;;;;;;10.38;4.95;;;17.30;99.90;;;;;;5101607;28;20403;-63
2022/06/21 03:54:48;;;;;;;6.57;4.82;;;17.30;99.90;;;;;;5110529;28;20051;-64
2022/06/21 03:57:21;;;;;;;7.78;5.57;;;17.30;99.90;;;;;;5113058;28;20100;-63
2022/06/21 04:00:00;;;;;;;6.47;5.40;;;17.30;99.90;;;;;;5108018;28;20054;-64
2022/06/21 04:02:33;;;;;;;7.88;5.40;;;17.30;99.90;;;;;;5108144;28;20428;-63
2022/06/21 04:05:16;;;;;;;9.52;6.55;;;17.30;99.90;;;;;;5112729;28;20039;-64
2022/06/21 04:07:52;;;;;;;10.60;6.05;;;17.20;99.90;;;;;;5106198;28;20447;-64
2022/06/21 04:10:53;;;;;;;12.70;6.03;;;17.20;99.90;;;;;;5106609;28;20518;-64
2022/06/21 04:13:23;;;;;;;7.88;5.97;;;17.20;99.90;;;;;;5112500;28;20039;-64
2022/06/21 04:16:11;;;;;;;7.47;5.78;;;17.10;99.90;;;;;;5100390;28;20032;-63
2022/06/21 04:19:00;;;;;;;8.50;5.47;;;17.20;99.90;;;;;;5109693;28;20426;-64
2022/06/21 04:21:42;;;;;;;10.55;5.85;;;17.10;99.90;;;;;;5112365;28;20393;-64
2022/06/21 04:24:13;;;;;;;8.40;5.25;;;17.10;99.90;;;;;;5092970;28;20051;-63
2022/06/21 04:27:21;;;;;;;7.90;5.45;;;17.10;99.90;;;;;;5109804;28;20088;-63
2022/06/21 04:30:06;;;;;;;8.07;5.75;;;17.10;99.90;;;;;;5110245;28;20040;-64
2022/06/21 04:32:47;;;;;;;9.63;5.82;;;17.00;99.90;;;;;;5103852;28;20035;-64
2022/06/21 04:35:27;;;;;;;11.13;5.60;;;17.00;99.90;;;;;;5111995;28;20089;-63
2022/06/21 04:38:07;;;;;;;7.63;5.35;;;17.00;99.90;;;;;;5110069;28;20093;-63
2022/06/21 04:40:44;;;;;;;9.10;5.43;;;17.00;99.90;;;;;;5099995;28;20090;-63
2022/06/21 04:43:22;;;;;;;9.50;5.07;;;16.90;99.90;;;;;;5071177;28;20101;-63
2022/06/21 04:45:59;;;;;;;8.50;5.35;;;16.80;99.90;;;;;;5071568;28;20102;-64
2022/06/21 04:48:48;;;;;;;14.60;5.63;;;16.80;99.90;;;;;;5087423;28;20036;-64
2022/06/21 04:51:28;;;;;;;7.55;5.20;;;16.80;99.90;;;;;;5099262;28;20446;-64
2022/06/21 04:54:00;;;;;;;7.80;5.53;;;16.90;99.90;;;;;;5111762;28;20097;-64
2022/06/21 04:56:51;;;;;;;10.38;5.25;;;16.90;99.90;;;;;;5107901;28;20044;-64
2022/06/21 04:59:36;;;;;;;8.45;5.70;;;16.90;99.90;;;;;;5093687;28;20511;-64
2022/06/21 05:02:05;;;;;;;8.57;5.53;;;16.90;99.90;;;;;;5090941;28;20052;-64
2022/06/21 05:04:36;;;;;;;8.90;5.57;;;17.00;99.90;;;;;;5091264;28;20052;-64
2022/06/21 05:07:07;;;;;;;5.63;5.00;;;17.00;99.90;;;;;;5094723;28;20040;-63
2022/06/21 05:09:35;;;;;;;8.57;5.68;;;17.00;99.90;;;;;;5103192;28;20059;-63
2022/06/21 05:12:11;;;;;;;10.43;5.53;;;17.10;99.90;;;;;;5110979;28;20048;-64
2022/06/21 05:14:45;;;;;;;10.57;6.32;;;17.00;99.90;;;;;;5102846;28;20044;-63
2022/06/21 05:17:15;;;;;;;11.70;6.15;;;16.90;99.90;;;;;;5103301;28;20081;-64
2022/06/21 05:19:48;;;;;;;6.95;5.90;;;17.00;99.90;;;;;;5111752;28;20039;-64
2022/06/21 05:22:39;;;;;;;11.48;6.57;;;17.00;99.90;;;;;;5108278;28;20088;-64
2022/06/21 05:25:21;;;;;;;10.10;5.70;;;17.00;99.90;;;;;;5096280;28;20419;-64
2022/06/21 05:27:54;;;;;;;7.15;5.70;;;16.90;99.90;;;;;;5112657;28;20055;-64
2022/06/21 05:30:45;;;;;;;16.63;6.78;;;17.00;99.90;;;;;;5111726;28;20063;-64
2022/06/21 05:33:31;;;;;;;7.65;5.65;;;17.10;99.90;;;;;;5096815;28;20040;-64
2022/06/21 05:35:59;;;;;;;6.65;5.32;;;17.00;99.90;;;;;;5095294;28;20044;-64
2022/06/21 05:38:31;;;;;;;8.77;6.05;;;17.00;99.90;;;;;;5095281;28;20094;-64
2022/06/21 05:41:03;;;;;;;7.70;5.90;;;17.00;99.90;;;;;;5097386;28;20054;-63
2022/06/21 05:43:49;;;;;;;9.13;5.82;;;16.90;99.90;;;;;;5106563;28;20071;-64
2022/06/21 05:46:22;;;;;;;12.60;6.57;;;16.90;99.90;;;;;;5115528;28;20044;-64
2022/06/21 05:48:53;;;;;;;10.05;6.55;;;16.90;99.90;;;;;;5115472;28;20044;-64
2022/06/21 05:51:27;;;;;;;8.27;6.00;;;16.90;99.90;;;;;;5091156;28;20036;-64
2022/06/21 05:53:58;;;;;;;11.45;5.60;;;17.00;99.90;;;;;;5106605;28;20047;-63
2022/06/21 05:56:29;;;;;;;9.43;5.63;;;16.90;99.90;;;;;;5115283;28;20036;-64
2022/06/21 05:59:10;;;;;;;7.60;5.95;;;16.90;99.90;;;;;;5109909;28;20039;-63
2022/06/21 06:01:49;;;;;;;11.45;6.20;;;16.80;99.90;;;;;;5106629;28;20385;-63
2022/06/21 06:04:38;;;;;;;9.63;6.00;;;16.70;99.90;;;;;;5114965;28;20105;-64
2022/06/21 06:07:07;;;;;;;13.20;6.03;;;16.70;99.90;;;;;;5115227;28;20113;-64
2022/06/21 06:09:40;;;;;;;10.63;6.25;;;16.70;99.90;;;;;;5108275;28;20280;-63
2022/06/21 06:12:17;;;;;;;8.98;5.88;;;16.70;99.90;;;;;;5099379;28;20043;-64
2022/06/21 06:14:54;;;;;;;8.98;6.38;;;16.70;99.90;;;;;;5115194;28;20503;-64
2022/06/21 06:17:50;;;;;;;7.82;5.22;;;16.70;99.90;;;;;;5113669;28;20039;-64
2022/06/21 06:20:29;;;;;;;14.18;6.22;;;16.80;99.90;;;;;;5060760;28;20503;-64
2022/06/21 06:23:01;;;;;;;10.95;5.63;;;16.80;99.90;;;;;;5114855;28;20458;-64
2022/06/21 06:25:48;;;;;;;8.00;5.82;;;16.80;99.90;;;;;;5113078;28;20108;-64
2022/06/21 06:28:20;;;;;;;9.82;5.78;;;16.90;99.90;;;;;;5102002;28;20062;-64
2022/06/21 06:31:10;;;;;;;11.90;5.95;;;17.00;99.90;;;;;;5114273;28;20040;-64
2022/06/21 06:33:45;;;;;;;15.73;6.22;;;17.00;99.90;;;;;;5096595;28;20423;-64
2022/06/21 06:36:20;;;;;;;8.10;5.53;;;17.10;99.90;;;;;;5107651;28;20445;-64
2022/06/21 06:38:47;;;;;;;8.00;5.15;;;17.10;99.90;;;;;;5114017;28;20465;-64
2022/06/21 06:41:21;;;;;;;10.73;5.03;;;17.10;99.90;;;;;;5114148;28;20092;-64
2022/06/21 06:43:55;;;;;;;8.48;5.07;;;17.10;99.90;;;;;;5085535;28;20055;-63
2022/06/21 06:46:29;;;;;;;8.45;4.78;;;17.10;99.90;;;;;;5108664;28;20050;-63
2022/06/21 06:49:25;;;;;;;7.15;4.75;;;17.10;99.90;;;;;;5114114;28;20070;-64
2022/06/21 06:52:16;;;;;;;10.60;4.53;;;17.20;99.90;;;;;;5075932;28;20052;-64
2022/06/21 06:55:08;;;;;;;5.82;4.70;;;17.20;99.90;;;;;;5105502;28;20048;-64
2022/06/21 06:57:48;;;;;;;8.90;4.80;;;17.30;99.90;;;;;;5114230;28;20048;-64
2022/06/21 07:00:42;;;;;;;9.93;4.68;;;17.40;99.90;;;;;;5108208;28;20449;-64
2022/06/21 07:03:25;;;;;;;9.77;4.75;;;17.50;99.90;;;;;;5099348;28;20403;-64
2022/06/21 07:06:04;;;;;;;6.85;4.55;;;17.60;99.90;;;;;;5113890;28;20039;-64
2022/06/21 07:08:53;;;;;;;9.13;4.63;;;17.50;99.90;;;;;;5107787;28;20048;-64
2022/06/21 07:11:24;;;;;;;8.75;4.93;;;17.50;99.90;;;;;;5095830;28;20089;-64
2022/06/21 07:13:58;;;;;;;8.38;4.55;;;17.60;99.90;;;;;;5093302;28;20506;-64
2022/06/21 07:16:27;;;;;;;10.30;5.03;;;17.60;99.90;;;;;;5093289;28;20105;-64
2022/06/21 07:18:59;;;;;;;15.50;4.13;;;17.60;99.90;;;;;;5095144;28;20105;-64
2022/06/21 07:21:26;;;;;;;10.02;4.35;;;17.70;99.90;;;;;;5104902;28;20462;-64
2022/06/21 07:23:57;;;;;;;;;;;17.80;99.90;;;;;;5095687;28;20051;-64
2022/06/21 07:26:32;;;;;;;11.00;4.25;;;17.80;99.90;;;;;;5113662;28;20424;-64
2022/06/21 07:29:07;;;;;;;9.32;4.93;;;17.80;99.90;;;;;;5108544;28;20101;-64
2022/06/21 07:31:41;;;;;;;7.78;4.88;;;17.70;99.90;;;;;;5109400;28;20045;-64
2022/06/21 07:34:29;;;;;;;14.38;5.15;;;17.90;99.90;;;;;;5113310;28;20039;-64
2022/06/21 07:37:06;;;;;;;15.43;5.33;;;17.90;99.90;;;;;;5107523;28;20415;-64
2022/06/21 07:39:40;;;;;;;10.02;5.47;;;18.00;99.90;;;;;;5109685;28;20043;-64
2022/06/21 07:42:16;;;;;;;11.85;4.68;;;18.00;99.90;;;;;;5112798;28;20097;-64
2022/06/21 07:45:18;;;;;;;9.95;5.25;;;18.10;99.90;;;;;;5121270;22;20419;-64
2022/06/21 07:48:14;;;;;;;10.10;4.97;;;18.30;99.90;;;;;;5092840;28;20043;-64
2022/06/21 07:50:46;;;;;;;11.73;5.03;;;18.60;99.90;;;;;;5047224;28;20048;-64
2022/06/21 07:53:27;;;;;;;6.63;4.68;;;18.50;99.90;;;;;;5092489;28;20032;-64
2022/06/21 07:56:05;;;;;;;9.35;5.10;;;18.50;99.90;;;;;;5081566;28;20052;-64
2022/06/21 07:58:59;;;;;;;8.38;5.00;;;18.40;99.90;;;;;;5088762;28;20056;-64
2022/06/21 08:07:39;;;;;;;12.85;4.82;;;18.70;99.90;;;;;;5092455;28;20058;-64
2022/06/21 08:10:25;;;;;;;10.40;5.00;;;19.10;99.90;;;;;;5091837;28;20172;-64
2022/06/21 08:12:54;;;;;;;10.35;5.10;;;19.20;99.90;;;;;;5075433;28;20053;-64
2022/06/21 08:15:27;;;;;;;12.75;4.88;;;19.30;99.90;;;;;;5068163;28;20044;-64
2022/06/21 08:18:17;;;;;;;11.68;5.32;;;19.30;99.90;;;;;;5071694;28;20101;-64
2022/06/21 08:20:49;;;;;;;9.88;5.13;;;19.10;99.90;;;;;;5018215;28;20106;-64
2022/06/21 08:23:22;;;;;;;7.20;5.22;;;19.00;99.90;;;;;;5083573;28;20062;-65
2022/06/21 08:25:51;;;;;;;12.55;6.15;;;19.00;99.90;;;;;;5091853;28;20036;-64
2022/06/21 08:28:28;;;;;;;11.02;6.50;;;18.80;99.90;;;;;;5091992;28;20077;-65
2022/06/21 08:30:57;;;;;;;12.10;5.72;;;18.90;99.90;;;;;;5081346;28;20386;-65
2022/06/21 08:33:32;;;;;;;10.13;5.85;;;19.20;99.90;;;;;;5091735;28;20048;-64
2022/06/21 08:36:02;;;;;;;15.98;6.50;;;19.30;99.90;;;;;;5092090;28;20382;-64
2022/06/21 08:38:45;;;;;;;9.88;5.43;;;19.40;99.90;;;;;;5081083;28;20036;-64
2022/06/21 08:41:53;;;;;;;11.20;5.57;;;19.40;99.90;;;;;;5077903;28;20101;-64
2022/06/21 08:44:28;;;;;;;13.05;6.43;;;19.40;99.90;;;;;;5091574;28;20504;-64
2022/06/21 08:47:19;;;;;;;10.80;6.20;;;19.40;99.90;;;;;;5083943;28;20427;-64
2022/06/21 08:50:24;;;;;;;12.90;6.38;;;19.40;99.90;;;;;;5076527;28;20036;-64
2022/06/21 08:53:31;;;;;;;11.75;5.43;;;19.40;99.90;;;;;;5091559;28;20562;-64
2022/06/21 08:56:16;;;;;;;10.95;6.28;;;19.40;99.90;;;;;;5086404;28;20524;-64
2022/06/21 08:59:17;;;;;;;12.15;6.53;;;19.40;99.90;;;;;;5089100;28;20098;-64
2022/06/21 09:01:49;;;;;;;9.43;5.82;;;19.20;99.90;;;;;;5091442;28;20063;-64
2022/06/21 09:04:48;;;;;;;10.40;6.13;;;19.30;99.90;;;;;;5088787;28;20040;-64
2022/06/21 09:07:28;;;;;;;11.65;6.68;;;19.40;99.90;;;;;;5078607;28;20040;-64
2022/06/21 09:10:36;;;;;;;16.15;6.22;;;19.70;99.90;;;;;;5091064;28;20047;-64
2022/06/21 09:13:36;;;;;;;14.77;6.72;;;19.80;99.90;;;;;;5079271;28;20558;-64
2022/06/21 09:16:12;;;;;;;11.88;6.45;;;19.90;99.90;;;;;;5051077;28;20045;-64
2022/06/21 09:19:19;;;;;;;11.00;6.25;;;20.00;99.90;;;;;;5051143;28;20064;-64
2022/06/21 09:22:25;;;;;;;11.93;6.53;;;19.90;99.90;;;;;;5054119;28;20412;-64
2022/06/21 09:25:15;;;;;;;14.32;6.57;;;20.00;99.90;;;;;;5082652;28;20063;-64
2022/06/21 09:27:48;;;;;;;10.20;6.18;;;20.20;99.90;;;;;;5091324;28;20040;-64
2022/06/21 09:30:43;;;;;;;12.45;6.47;;;20.30;99.90;;;;;;5079667;28;20044;-64
2022/06/21 09:33:32;;;;;;;14.85;6.88;;;20.40;99.90;;;;;;5077278;28;20074;-64
2022/06/21 09:36:14;;;;;;;11.98;6.93;;;20.40;99.90;;;;;;5091424;28;20044;-64
2022/06/21 09:39:14;;;;;;;13.95;7.43;;;20.40;99.90;;;;;;5088338;28;20078;-64
2022/06/21 09:41:58;;;;;;;11.32;6.90;;;20.30;99.90;;;;;;5087846;28;20500;-64
2022/06/21 09:45:01;;;;;;;13.00;8.18;;;20.30;99.90;;;;;;5091125;28;20048;-64
2022/06/21 09:47:37;;;;;;;16.35;8.38;;;20.20;99.90;;;;;;5068845;28;20060;-64
2022/06/21 09:50:36;;;;;;;17.63;8.23;;;20.20;99.90;;;;;;5070917;28;20172;-64
2022/06/21 09:53:17;;;;;;;15.35;7.82;;;20.30;99.90;;;;;;5015909;28;20160;-64
2022/06/21 09:56:07;;;;;;;15.85;8.15;;;20.50;99.90;;;;;;5067230;28;20045;-64
2022/06/21 09:58:49;;;;;;;11.98;7.82;;;20.70;99.90;;;;;;5082550;28;20044;-64
2022/06/21 10:01:46;;;;;;;15.45;7.55;;;20.80;99.90;;;;;;5090422;28;20550;-64
2022/06/21 10:04:33;;;;;;;19.95;8.35;;;20.80;99.90;;;;;;5088247;28;20036;-64
2022/06/21 10:07:05;;;;;;;11.75;7.25;;;20.70;99.90;;;;;;5082475;28;20047;-64
2022/06/21 10:10:11;;;;;;;16.17;8.40;;;20.70;99.90;;;;;;5090969;28;20040;-64
2022/06/21 10:12:44;;;;;;;13.95;8.07;;;20.80;99.90;;;;;;5078208;28;20450;-64
2022/06/21 10:15:33;;;;;;;13.63;7.57;;;21.00;99.90;;;;;;5067304;28;20052;-64
2022/06/21 10:18:15;;;;;;;13.38;7.47;;;21.00;99.90;;;;;;5094551;28;20055;-64
2022/06/21 10:21:07;;;;;;;15.20;7.97;;;20.90;99.90;;;;;;5094224;28;20093;-64
2022/06/21 10:24:11;;;;;;;15.27;8.77;;;20.90;99.90;;;;;;5078442;28;20052;-64
2022/06/21 10:26:56;;;;;;;16.35;8.13;;;21.00;99.90;;;;;;5054096;28;20040;-64
2022/06/21 10:29:44;;;;;;;15.93;8.43;;;21.20;99.90;;;;;;5054123;28;20091;-64
2022/06/21 10:32:36;;;;;;;18.30;7.60;;;21.20;99.90;;;;;;5057058;28;20060;-64
2022/06/21 10:35:30;;;;;;;13.73;8.55;;;21.30;99.90;;;;;;5054064;28;20489;-64
2022/06/21 10:38:45;;;;;;;15.27;8.55;;;21.10;99.90;;;;;;5035996;28;20057;-64
2022/06/21 10:41:20;;;;;;;17.77;8.48;;;20.80;99.90;;;;;;5017088;28;20462;-64
2022/06/21 10:44:08;;;;;;;15.40;8.45;;;20.70;99.90;;;;;;5085435;28;20496;-64
2022/06/21 10:46:44;;;;;;;16.20;8.65;;;20.60;99.90;;;;;;5094213;28;20446;-64
2022/06/21 10:50:02;;;;;;;14.45;8.70;;;20.60;99.90;;;;;;5087596;28;20047;-64
2022/06/21 10:53:00;;;;;;;14.85;9.05;;;20.40;99.90;;;;;;5053891;28;20071;-64
2022/06/21 10:59:05;;;;;;;14.13;9.27;;;20.30;99.90;;;;;;5082553;28;20048;-64
2022/06/21 11:01:42;;;;;;;17.02;9.48;;;20.30;99.90;;;;;;5093387;28;20044;-64
2022/06/21 11:04:25;;;;;;;22.07;10.37;;;20.20;99.90;;;;;;5093649;28;20116;-64
2022/06/21 11:07:08;;;;;;;16.15;9.52;;;20.30;99.90;;;;;;5085517;28;20040;-64
2022/06/21 11:09:50;;;;;;;16.83;9.48;;;20.30;99.90;;;;;;5089680;28;20100;-64
2022/06/21 11:15:22;;;;;;;;;;;20.60;99.90;;;;;;5084363;28;20047;-64
2022/06/21 11:18:18;;;;;;;20.52;10.10;;;20.80;99.90;;;;;;5084928;28;19950;-64
2022/06/21 11:21:13;;;;;;;18.27;10.63;;;20.90;99.90;;;;;;5092920;28;20450;-64
2022/06/21 11:23:57;;;;;;;18.67;10.48;;;21.10;99.90;;;;;;5083226;28;20075;-64
2022/06/21 11:26:39;;;;;;;24.77;11.00;;;21.20;99.90;;;;;;5065809;28;20097;-64
2022/06/21 11:29:39;;;;;;;21.30;11.63;;;21.30;99.90;;;;;;5093244;28;20040;-64
2022/06/21 11:32:11;;;;;;;19.57;10.87;;;21.30;99.90;;;;;;5092537;28;20036;-64
2022/06/21 11:34:48;;;;;;;25.05;11.35;;;21.40;99.90;;;;;;5081084;28;20048;-64
2022/06/21 11:37:24;;;;;;;21.55;11.30;;;21.50;99.90;;;;;;5093100;28;20052;-64
2022/06/21 11:40:35;;;;;;;16.83;11.27;;;21.60;99.90;;;;;;5092449;28;20097;-64
2022/06/21 11:43:08;;;;;;;20.08;11.30;;;21.90;99.90;;;;;;5078832;28;20044;-64
2022/06/21 11:45:46;;;;;;;18.10;11.50;;;22.00;99.90;;;;;;5066503;28;20512;-65
2022/06/21 11:48:23;;;;;;;22.30;11.85;;;22.20;99.90;;;;;;5093298;28;20094;-65
2022/06/21 11:51:10;;;;;;;16.95;11.40;;;22.40;99.90;;;;;;5088837;28;20481;-65
2022/06/21 11:53:56;;;;;;;20.27;11.70;;;22.50;99.90;;;;;;5077798;28;20052;-65
2022/06/21 11:56:44;;;;;;;21.27;14.00;;;22.60;99.90;;;;;;5092873;28;20381;-65
2022/06/21 11:59:34;;;;;;;17.42;11.70;;;22.80;99.90;;;;;;5092693;28;20451;-65
2022/06/21 12:02:31;;;;;;;19.10;12.35;;;23.00;99.90;;;;;;5076670;28;20067;-65
2022/06/21 12:05:23;;;;;;;21.20;11.77;;;23.00;99.90;;;;;;5092174;28;20113;-64
2022/06/21 12:08:08;;;;;;;20.35;11.25;;;23.20;99.90;;;;;;5092519;28;20039;-65
2022/06/21 12:11:10;;;;;;;18.02;11.05;;;23.30;99.90;;;;;;5087872;28;20044;-65
2022/06/21 12:13:58;;;;;;;18.90;11.75;;;23.50;99.90;;;;;;5085305;28;20101;-65
2022/06/21 12:16:38;;;;;;;21.98;12.38;;;23.70;99.90;;;;;;5092406;28;20063;-65
2022/06/21 12:19:11;;;;;;;18.67;12.02;;;23.60;99.90;;;;;;5083114;28;20044;-65
2022/06/21 12:21:46;;;;;;;20.15;12.43;;;23.80;99.90;;;;;;5083324;28;20097;-65
2022/06/21 12:24:20;;;;;;;18.75;10.68;;;23.90;99.90;;;;;;5092034;28;20044;-65
2022/06/21 12:26:47;;;;;;;17.58;11.18;;;24.00;99.90;;;;;;5082922;28;20045;-65
2022/06/21 12:29:19;;;;;;;20.05;11.43;;;24.00;99.90;;;;;;5083345;28;20451;-65
2022/06/21 12:31:52;;;;;;;18.88;11.60;;;24.10;99.90;;;;;;5091653;28;20089;-65
2022/06/21 12:34:41;;;;;;;15.30;10.93;;;24.10;99.90;;;;;;5091932;28;20077;-65
2022/06/21 12:37:27;;;;;;;12.65;9.88;;;24.20;99.90;;;;;;5054400;28;20036;-65
2022/06/21 12:40:10;;;;;;;17.02;10.57;;;24.20;99.90;;;;;;5071288;28;20485;-65
2022/06/21 12:42:47;;;;;;;17.13;11.25;;;24.00;99.90;;;;;;5071641;28;20382;-66
2022/06/21 12:45:44;;;;;;;15.57;10.70;;;24.00;99.90;;;;;;5078324;28;20040;-66
2022/06/21 12:48:26;;;;;;;17.20;9.57;;;24.20;99.90;;;;;;5033628;28;20087;-65
2022/06/21 12:50:58;;;;;;;14.40;9.52;;;24.30;99.90;;;;;;5051136;28;20049;-65
2022/06/21 12:54:03;;;;;;;15.70;9.38;;;24.50;99.90;;;;;;5074555;28;20489;-65
2022/06/21 12:57:01;;;;;;;17.52;9.85;;;24.50;99.90;;;;;;5051694;28;20095;-65
2022/06/21 12:59:43;;;;;;;16.15;9.75;;;24.60;99.90;;;;;;5051354;28;20501;-65
2022/06/21 13:02:31;;;;;;;14.63;10.18;;;24.60;99.90;;;;;;5072249;28;20558;-65
2022/06/21 13:05:19;;;;;;;17.50;9.73;;;24.80;99.90;;;;;;5091611;28;20114;-65
2022/06/21 13:08:36;;;;;;;17.63;10.52;;;24.80;99.90;;;;;;5092007;28;20044;-66
2022/06/21 13:11:26;;;;;;;15.32;10.43;;;24.80;99.90;;;;;;5078617;28;20044;-65
2022/06/21 13:14:21;;;;;;;17.40;10.68;;;24.70;99.90;;;;;;5090273;28;20048;-65
2022/06/21 13:17:18;;;;;;;14.98;9.93;;;24.70;99.90;;;;;;5090264;28;20044;-65
2022/06/21 13:20:04;;;;;;;17.83;9.32;;;24.70;99.90;;;;;;5078731;28;20048;-65
2022/06/21 13:23:00;;;;;;;14.90;9.23;;;24.70;99.90;;;;;;5091161;28;20044;-65
2022/06/21 13:25:40;;;;;;;13.48;9.00;;;24.80;99.90;;;;;;5088878;28;20044;-65
2022/06/21 13:28:45;;;;;;;16.67;8.90;;;24.90;99.90;;;;;;5076390;28;20044;-65
2022/06/21 13:31:28;;;;;;;15.48;9.90;;;25.00;99.90;;;;;;5073195;28;20036;-65
2022/06/21 13:33:59;;;;;;;16.38;9.95;;;25.00;99.90;;;;;;5081367;28;20770;-65
2022/06/21 13:36:45;;;;;;;12.15;9.35;;;25.20;99.90;;;;;;5082774;28;20048;-65
2022/06/21 13:39:33;;;;;;;14.40;8.90;;;25.20;99.90;;;;;;5091120;28;20488;-65
2022/06/21 13:48:50;;;;;;;14.05;9.45;;;25.50;99.90;;;;;;5107348;28;20036;-65
2022/06/21 13:51:18;;;;;;;12.68;8.55;;;25.50;99.90;;;;;;5108335;28;20451;-64
2022/06/21 13:53:52;;;;;;;13.40;8.95;;;25.40;99.90;;;;;;5094445;28;20039;-65
2022/06/21 13:56:27;;;;;;;13.05;9.20;;;25.50;99.90;;;;;;5094937;28;20393;-66
2022/06/21 13:59:32;;;;;;;15.27;9.43;;;25.50;99.90;;;;;;5094844;28;20040;-65
2022/06/21 14:02:25;;;;;;;13.23;9.40;;;25.60;99.90;;;;;;5078818;28;20060;-65
2022/06/21 14:05:11;;;;;;;12.80;8.57;;;25.90;99.90;;;;;;5093727;28;20439;-65
2022/06/21 14:07:56;;;;;;;10.73;8.57;;;26.00;99.90;;;;;;5094635;28;20484;-65
2022/06/21 14:10:47;;;;;;;11.73;8.50;;;26.00;99.90;;;;;;5090570;28;20032;-65